Aviation Digital Data Service (ADDS)

Output produced by METARs form (0659 UTC 27 September 2016)
found at http://aviationweather.gov/adds/metars/
 
KPHF 270521Z 2706/2806 20007KT P6SM OVC040 
     FM271400 23007KT 6SM -SHRA BR OVC030 
     FM271800 22006KT 6SM -SHRA BR OVC040 
     FM272000 16005KT 6SM -SHRA BR OVC040